International Virtual Aviation Organisation

Eastern Europe and Northern Asia MCD

 

Карточка аэропорта UWOO

Внимание!
Информация на этой странице в стадии наполнения.
Если вы не увидели какой-то информации, или заметили неточность - пожалуйста сообщите нам!
Спасибо!
Команда RU-STAFF
Название аэропортаОренбург
Название аэропорта (англ.)Orenburg
Превышение387 ft. (118 m.)
Координаты51°48', 55°27'
Высота перехода700m
Эшелон переходаBy ATC
Коды ответчика2440-2443
Зона ОрВДСамара РПИ (UWWW)
Данные METARUWOO 101100Z 13009MPS CAVOK 19/07 Q1028 R08/CLRD60 NOSIG RMK QFE760/1013
Проноз погоды (TAF)UWOO 101052Z 1012/1112 13008G13MPS 9999 SCT040 TX18/1012Z TN05/1103Z TEMPO 1012/1021 15011G17MPS BECMG 1021/1023 16006G12MPS
NOTAMshow/hide NOTAM
AWOS   TABLE

Информация о ВПП

ВПП Длина ВПП (м.) Покрытие Курс ВПП Частота ILS
082501Асфальтобетон79109
262501Асфальтобетон259109.3

Диспетчерские позиции

Позывной Наименование органа УВД Частота
UWOO_TWRОренбург- Вышка128.0
UWOO_R_APPОренбург - Круг120.400



Спутниковое изображение